Back to Top

Language: 

My Weather Underground Personal Weather Station Historical Data with Graphs...

Delerius Weather Station Historical Data
Daily Summary for September 19, 2017 Units:  Metric    English   Both
« Previous Day
Next Day »
Daily Weekly Monthly Yearly Custom
  High: Low: Average:
Temperature: 17.2 °C 4.2 °C 10.8 °C
Dew Point: 10.1 °C 3.6 °C 7.5 °C
Humidity: 98 % 57 % 82 %
Wind Speed: 12.9 km/h 0 km/h 3.2 km/h
Wind Gust: 24.1 km/h - -
Wind:- - West
Pressure: 1021.2 hPa 1018.8 hPa -
Precipitation: 0 mm    
Historical Graphs
 
 
Tabular Data for September 19, 2017
Time Temperature Dew Point Pressure Wind Wind Speed Wind Gust Humidity Rainfall Rate (Hourly) solar Conditions
00:02 8.3 °C 7.6 °C 1019.9 hPa Calm   1.6 km/h 95 % 0 mm 0 W/m2
00:07 8.3 °C 7.6 °C 1019.5 hPa NW 1.6 km/h 8 km/h 95 % 0 mm 0 W/m2
00:12 8.2 °C 7.4 °C 1019.5 hPa NW 3.2 km/h 9.7 km/h 95 % 0 mm 0 W/m2
00:17 8.2 °C 7.4 °C 1019.5 hPa NW 1.6 km/h 9.7 km/h 95 % 0 mm 0 W/m2
00:22 8.2 °C 7.4 °C 1019.9 hPa Calm     95 % 0 mm 0 W/m2
00:27 8.1 °C 7.3 °C 1019.9 hPa Calm     95 % 0 mm 0 W/m2
00:32 8 °C 7.2 °C 1019.9 hPa Calm     95 % 0 mm 0 W/m2
00:37 7.9 °C 7.2 °C 1019.9 hPa Calm     95 % 0 mm 0 W/m2
00:42 7.9 °C 7.2 °C 1019.9 hPa Calm     95 % 0 mm 0 W/m2
00:47 7.8 °C 7.1 °C 1019.9 hPa Calm     95 % 0 mm 0 W/m2
00:52 7.8 °C 7.1 °C 1019.9 hPa Calm   4.8 km/h 95 % 0 mm 0 W/m2
00:57 7.7 °C 6.9 °C 1019.9 hPa Calm   4.8 km/h 95 % 0 mm 0 W/m2
01:02 7.7 °C 6.9 °C 1019.9 hPa Calm   4.8 km/h 95 % 0 mm 0 W/m2
01:07 7.7 °C 6.9 °C 1019.9 hPa Calm   1.6 km/h 95 % 0 mm 0 W/m2
01:12 7.7 °C 6.9 °C 1019.9 hPa Calm   1.6 km/h 95 % 0 mm 0 W/m2
01:17 7.7 °C 6.9 °C 1019.9 hPa Calm   1.6 km/h 95 % 0 mm 0 W/m2
01:22 7.7 °C 7.1 °C 1019.9 hPa Calm   1.6 km/h 96 % 0 mm 0 W/m2
01:27 7.6 °C 6.8 °C 1019.9 hPa Calm   3.2 km/h 95 % 0 mm 0 W/m2
01:32 7.6 °C 6.8 °C 1019.9 hPa Calm   3.2 km/h 95 % 0 mm 0 W/m2
01:37 7.5 °C 6.9 °C 1020.2 hPa NW 1.6 km/h 4.8 km/h 96 % 0 mm 0 W/m2
01:42 7.4 °C 6.7 °C 1020.2 hPa NW 1.6 km/h 8 km/h 95 % 0 mm 0 W/m2
01:47 7.4 °C 6.7 °C 1020.2 hPa NW 1.6 km/h 8 km/h 95 % 0 mm 0 W/m2
01:52 7.3 °C 6.7 °C 1020.2 hPa NW 1.6 km/h 6.4 km/h 96 % 0 mm 0 W/m2
01:57 7.3 °C 6.7 °C 1020.2 hPa Calm   6.4 km/h 96 % 0 mm 0 W/m2
02:02 7.2 °C 6.6 °C 1020.2 hPa Calm   3.2 km/h 96 % 0 mm 0 W/m2
02:07 7.2 °C 6.6 °C 1020.2 hPa Calm   3.2 km/h 96 % 0 mm 0 W/m2
02:12 7.1 °C 6.5 °C 1020.2 hPa Calm   6.4 km/h 96 % 0 mm 0 W/m2
02:17 7.1 °C 6.5 °C 1020.2 hPa NW 1.6 km/h 8 km/h 96 % 0 mm 0 W/m2
02:22 7.1 °C 6.5 °C 1020.2 hPa NW 4.8 km/h 9.7 km/h 96 % 0 mm 0 W/m2
02:27 7.1 °C 6.5 °C 1020.2 hPa NW 4.8 km/h 9.7 km/h 96 % 0 mm 0 W/m2
02:32 7.1 °C 6.5 °C 1020.2 hPa NW 3.2 km/h 8 km/h 96 % 0 mm 0 W/m2
02:37 7.1 °C 6.5 °C 1020.2 hPa NW 1.6 km/h 6.4 km/h 96 % 0 mm 0 W/m2
02:42 6.9 °C 6.3 °C 1020.2 hPa NW 1.6 km/h 4.8 km/h 96 % 0 mm 0 W/m2
02:47 6.9 °C 6.3 °C 1020.2 hPa NW 1.6 km/h 6.4 km/h 96 % 0 mm 0 W/m2
02:52 6.8 °C 6.2 °C 1020.2 hPa NW 3.2 km/h 9.7 km/h 96 % 0 mm 0 W/m2
02:57 6.8 °C 6.2 °C 1020.2 hPa NW 3.2 km/h 9.7 km/h 96 % 0 mm 0 W/m2
03:02 6.8 °C 6.2 °C 1020.2 hPa NW 3.2 km/h 9.7 km/h 96 % 0 mm 0 W/m2
03:07 6.8 °C 6.2 °C 1020.2 hPa NW 4.8 km/h 9.7 km/h 96 % 0 mm 0 W/m2
03:12 6.8 °C 6.2 °C 1020.2 hPa NW 6.4 km/h 9.7 km/h 96 % 0 mm 0 W/m2
03:17 6.8 °C 6.2 °C 1020.2 hPa NW 6.4 km/h 11.3 km/h 96 % 0 mm 0 W/m2
03:23 6.8 °C 6.2 °C 1020.2 hPa NW 6.4 km/h 11.3 km/h 96 % 0 mm 0 W/m2
03:28 6.9 °C 6.3 °C 1020.2 hPa NW 6.4 km/h 11.3 km/h 96 % 0 mm 0 W/m2
03:33 6.9 °C 6.3 °C 1020.2 hPa NW 6.4 km/h 11.3 km/h 96 % 0 mm 0 W/m2
03:38 6.9 °C 6.3 °C 1020.2 hPa NW 8 km/h 14.5 km/h 96 % 0 mm 0 W/m2
03:43 6.9 °C 6.3 °C 1020.2 hPa WNW 6.4 km/h 14.5 km/h 96 % 0 mm 0 W/m2
03:48 6.8 °C 6.2 °C 1020.2 hPa NW 4.8 km/h 9.7 km/h 96 % 0 mm 0 W/m2
03:53 6.8 °C 6.2 °C 1020.2 hPa NW 1.6 km/h 6.4 km/h 96 % 0 mm 0 W/m2
03:58 6.7 °C 6.1 °C 1020.2 hPa NW 3.2 km/h 8 km/h 96 % 0 mm 0 W/m2
04:03 6.6 °C 6 °C 1020.2 hPa NW 3.2 km/h 8 km/h 96 % 0 mm 0 W/m2
04:08 6.5 °C 5.9 °C 1020.2 hPa NW 3.2 km/h 8 km/h 96 % 0 mm 0 W/m2
04:13 6.3 °C 5.6 °C 1020.2 hPa NW 1.6 km/h 6.4 km/h 95 % 0 mm 0 W/m2
04:18 6.1 °C 5.3 °C 1020.2 hPa Calm     95 % 0 mm 0 W/m2
04:23 5.9 °C 5.2 °C 1020.2 hPa Calm     95 % 0 mm 0 W/m2
04:28 5.8 °C 5.1 °C 1020.2 hPa Calm     95 % 0 mm 0 W/m2
04:33 5.7 °C 4.9 °C 1020.2 hPa Calm     95 % 0 mm 0 W/m2
04:34 5.7 °C 4.9 °C 1020.2 hPa Calm     95 % 0 mm 0 W/m2
04:39 5.6 °C 4.9 °C 1020.2 hPa Calm     95 % 0 mm 0 W/m2
04:44 5.4 °C 4.8 °C 1020.2 hPa Calm   4.8 km/h 96 % 0 mm 0 W/m2
04:49 5.3 °C 4.6 °C 1020.2 hPa Calm   4.8 km/h 95 % 0 mm 0 W/m2
04:54 5.3 °C 4.7 °C 1020.2 hPa Calm   4.8 km/h 96 % 0 mm 0 W/m2
04:59 5.2 °C 4.6 °C 1020.2 hPa NW 1.6 km/h 6.4 km/h 96 % 0 mm 0 W/m2
05:04 5.2 °C 4.6 °C 1020.2 hPa NW 1.6 km/h 8 km/h 96 % 0 mm 0 W/m2
05:09 5.2 °C 4.6 °C 1020.5 hPa NW 1.6 km/h 8 km/h 96 % 0 mm 0 W/m2
05:14 5.2 °C 4.6 °C 1020.5 hPa Calm   6.4 km/h 96 % 0 mm 0 W/m2
05:19 5.2 °C 4.6 °C 1020.2 hPa Calm   1.6 km/h 96 % 0 mm 0 W/m2
05:24 5.1 °C 4.5 °C 1020.2 hPa Calm     96 % 0 mm 0 W/m2
05:29 5 °C 4.4 °C 1020.2 hPa Calm   4.8 km/h 96 % 0 mm 0 W/m2
05:34 4.9 °C 4.3 °C 1020.2 hPa NW 1.6 km/h 4.8 km/h 96 % 0 mm 0 W/m2
05:39 4.8 °C 4.2 °C 1020.5 hPa NW 1.6 km/h 6.4 km/h 96 % 0 mm 0 W/m2
05:44 4.8 °C 4.2 °C 1020.2 hPa NW 1.6 km/h 6.4 km/h 96 % 0 mm 0 W/m2
05:49 4.8 °C 4.2 °C 1020.2 hPa Calm   4.8 km/h 96 % 0 mm 0 W/m2
05:54 4.7 °C 4.1 °C 1020.2 hPa Calm     96 % 0 mm 0 W/m2
05:59 4.7 °C 4.1 °C 1020.2 hPa Calm   3.2 km/h 96 % 0 mm 0 W/m2
06:04 4.6 °C 4 °C 1020.2 hPa NW 1.6 km/h 4.8 km/h 96 % 0 mm 0 W/m2
06:09 4.6 °C 4 °C 1020.2 hPa NW 1.6 km/h 4.8 km/h 96 % 0 mm 0 W/m2
06:14 4.5 °C 3.9 °C 1020.2 hPa Calm     96 % 0 mm 0 W/m2
06:19 4.4 °C 3.8 °C 1020.2 hPa Calm     96 % 0 mm 0 W/m2
06:20 4.4 °C 3.8 °C 1020.2 hPa Calm     96 % 0 mm 0 W/m2
06:25 4.4 °C 3.8 °C 1020.2 hPa NW 1.6 km/h 6.4 km/h 96 % 0 mm 0 W/m2
06:30 4.4 °C 3.8 °C 1020.2 hPa NW 3.2 km/h 6.4 km/h 96 % 0 mm 0 W/m2
06:35 4.4 °C 3.8 °C 1020.2 hPa NW 3.2 km/h 6.4 km/h 96 % 0 mm 0 W/m2
06:40 4.4 °C 3.8 °C 1020.2 hPa NW 1.6 km/h 6.4 km/h 96 % 0 mm 0 W/m2
06:45 4.4 °C 3.8 °C 1020.5 hPa NW 1.6 km/h 6.4 km/h 96 % 0 mm 5 W/m2
06:50 4.4 °C 3.8 °C 1020.5 hPa NW 1.6 km/h 6.4 km/h 96 % 0 mm 7 W/m2
06:55 4.3 °C 3.7 °C 1020.5 hPa Calm   3.2 km/h 96 % 0 mm 9 W/m2
07:00 4.3 °C 3.7 °C 1020.2 hPa Calm     96 % 0 mm 11 W/m2
07:05 4.2 °C 3.6 °C 1020.2 hPa Calm   3.2 km/h 96 % 0 mm 12 W/m2
07:10 4.3 °C 3.7 °C 1020.5 hPa Calm   3.2 km/h 96 % 0 mm 14 W/m2
07:15 4.2 °C 3.6 °C 1020.2 hPa Calm     96 % 0 mm 16 W/m2
07:20 4.2 °C 3.6 °C 1020.5 hPa Calm     96 % 0 mm 18 W/m2
07:25 4.2 °C 3.6 °C 1020.5 hPa Calm     96 % 0 mm 19 W/m2
07:30 4.2 °C 3.6 °C 1020.5 hPa Calm   3.2 km/h 96 % 0 mm 21 W/m2
07:35 4.2 °C 3.8 °C 1020.5 hPa Calm   3.2 km/h 97 % 0 mm 23 W/m2
07:40 4.3 °C 3.9 °C 1020.5 hPa Calm     97 % 0 mm 25 W/m2
07:45 4.4 °C 3.9 °C 1020.5 hPa Calm   6.4 km/h 97 % 0 mm 25 W/m2
07:50 4.8 °C 4.4 °C 1020.5 hPa NW 1.6 km/h 8 km/h 97 % 0 mm 144 W/m2
07:55 5.1 °C 4.7 °C 1020.5 hPa NW 1.6 km/h 8 km/h 97 % 0 mm 158 W/m2
08:00 5.4 °C 4.9 °C 1020.9 hPa Calm   1.6 km/h 97 % 0 mm 169 W/m2
08:05 5.7 °C 5.4 °C 1020.9 hPa Calm     98 % 0 mm 181 W/m2
08:10 6 °C 5.7 °C 1020.9 hPa Calm     98 % 0 mm 192 W/m2
08:15 6.4 °C 6.1 °C 1020.9 hPa Calm     98 % 0 mm 204 W/m2
08:16 6.6 °C 6.3 °C 1020.9 hPa Calm     98 % 0 mm 207 W/m2
08:21 7.3 °C 7 °C 1020.9 hPa Calm     98 % 0 mm 220 W/m2
08:26 7.6 °C 7.3 °C 1020.9 hPa Calm     98 % 0 mm 232 W/m2
08:31 7.7 °C 7.4 °C 1020.9 hPa Calm     98 % 0 mm 244 W/m2
08:36 7.8 °C 7.5 °C 1020.9 hPa Calm     98 % 0 mm 257 W/m2
08:41 7.9 °C 7.4 °C 1020.9 hPa Calm     97 % 0 mm 269 W/m2
08:46 8.1 °C 7.7 °C 1020.9 hPa Calm     97 % 0 mm 281 W/m2
08:51 8.3 °C 7.8 °C 1020.9 hPa Calm     97 % 0 mm 295 W/m2
08:56 8.6 °C 8.2 °C 1020.9 hPa Calm     97 % 0 mm 306 W/m2
09:01 8.8 °C 8.3 °C 1020.9 hPa Calm     97 % 0 mm 320 W/m2
09:06 9.1 °C 8.7 °C 1020.9 hPa Calm   1.6 km/h 97 % 0 mm 332 W/m2
09:11 9.3 °C 8.8 °C 1020.9 hPa Calm   1.6 km/h 97 % 0 mm 345 W/m2
09:16 9.6 °C 9.2 °C 1020.9 hPa Calm   1.6 km/h 97 % 0 mm 355 W/m2
09:21 9.8 °C 9.3 °C 1020.9 hPa Calm   3.2 km/h 97 % 0 mm 366 W/m2
09:26 10.1 °C 9.5 °C 1021.2 hPa SSW 1.6 km/h 8 km/h 96 % 0 mm 380 W/m2
09:31 10.4 °C 9.8 °C 1020.9 hPa SSW 1.6 km/h 8 km/h 96 % 0 mm 392 W/m2
09:36 10.8 °C 10.1 °C 1020.9 hPa SW 1.6 km/h 8 km/h 95 % 0 mm 403 W/m2
09:42 11 °C 9.9 °C 1020.9 hPa SW 1.6 km/h 6.4 km/h 93 % 0 mm 415 W/m2
09:47 11.1 °C 9.8 °C 1020.9 hPa SW 1.6 km/h 8 km/h 92 % 0 mm 427 W/m2
09:52 11.3 °C 9.7 °C 1021.2 hPa SW 3.2 km/h 9.7 km/h 90 % 0 mm 438 W/m2
09:57 11.5 °C 9.6 °C 1020.9 hPa SW 3.2 km/h 9.7 km/h 88 % 0 mm 450 W/m2
10:02 11.9 °C 9.8 °C 1020.9 hPa SW 1.6 km/h 9.7 km/h 87 % 0 mm 462 W/m2
10:07 12.2 °C 9.4 °C 1020.9 hPa SW 1.6 km/h 9.7 km/h 83 % 0 mm 471 W/m2
10:12 12.6 °C 9.6 °C 1020.9 hPa SW 3.2 km/h 9.7 km/h 82 % 0 mm 487 W/m2
10:17 12.9 °C 9.2 °C 1020.9 hPa SW 1.6 km/h 6.4 km/h 78 % 0 mm 497 W/m2
10:22 13.4 °C 9.1 °C 1020.9 hPa SW 1.6 km/h 9.7 km/h 75 % 0 mm 515 W/m2
10:27 13.6 °C 9.1 °C 1020.9 hPa SW 1.6 km/h 9.7 km/h 74 % 0 mm 545 W/m2
10:32 13.9 °C 9.1 °C 1020.9 hPa SW 1.6 km/h 8 km/h 73 % 0 mm 571 W/m2
10:37 14 °C 8.8 °C 1020.9 hPa SW 3.2 km/h 9.7 km/h 71 % 0 mm 466 W/m2
10:42 14 °C 8.8 °C 1020.9 hPa WSW 4.8 km/h 11.3 km/h 71 % 0 mm 564 W/m2
10:47 14.1 °C 8.7 °C 1020.9 hPa WSW 4.8 km/h 11.3 km/h 70 % 0 mm 485 W/m2
10:52 14.1 °C 8.7 °C 1020.9 hPa West 4.8 km/h 9.7 km/h 70 % 0 mm 526 W/m2
10:57 14.3 °C 8.7 °C 1020.9 hPa WSW 3.2 km/h 9.7 km/h 69 % 0 mm 538 W/m2
11:02 14.2 °C 8.6 °C 1020.9 hPa WSW 3.2 km/h 11.3 km/h 69 % 0 mm 394 W/m2
11:07 14.4 °C 9 °C 1020.9 hPa WSW 1.6 km/h 11.3 km/h 70 % 0 mm 647 W/m2
11:12 14.6 °C 8.6 °C 1020.9 hPa West 3.2 km/h 9.7 km/h 67 % 0 mm 673 W/m2
11:17 14.8 °C 8.7 °C 1020.5 hPa West 4.8 km/h 9.7 km/h 67 % 0 mm 712 W/m2
11:22 15.1 °C 8.8 °C 1020.5 hPa NW 3.2 km/h 8 km/h 66 % 0 mm 722 W/m2
11:27 15.1 °C 8.8 °C 1020.9 hPa NW 3.2 km/h 8 km/h 66 % 0 mm 410 W/m2
11:32 15.1 °C 8.6 °C 1020.9 hPa WNW 4.8 km/h 14.5 km/h 65 % 0 mm 369 W/m2
11:37 15.1 °C 9 °C 1020.5 hPa WNW 4.8 km/h 14.5 km/h 67 % 0 mm 606 W/m2
11:42 15.2 °C 9.1 °C 1020.9 hPa WNW 4.8 km/h 9.7 km/h 67 % 0 mm 610 W/m2
11:47 15.3 °C 9 °C 1020.5 hPa WNW 6.4 km/h 12.9 km/h 66 % 0 mm 642 W/m2
11:52 15.4 °C 9.1 °C 1020.9 hPa West 8 km/h 12.9 km/h 66 % 0 mm 726 W/m2
11:57 15.4 °C 9.1 °C 1020.9 hPa West 6.4 km/h 12.9 km/h 66 % 0 mm 596 W/m2
12:02 15.5 °C 9.2 °C 1020.5 hPa West 6.4 km/h 14.5 km/h 66 % 0 mm 540 W/m2
12:07 15.6 °C 9.1 °C 1020.5 hPa WSW 8 km/h 14.5 km/h 65 % 0 mm 554 W/m2
12:12 15.5 °C 8.9 °C 1020.5 hPa WSW 6.4 km/h 12.9 km/h 65 % 0 mm 649 W/m2
12:17 15.5 °C 8.5 °C 1020.5 hPa WSW 6.4 km/h 14.5 km/h 63 % 0 mm 399 W/m2
12:22 15.4 °C 8.6 °C 1020.5 hPa West 6.4 km/h 14.5 km/h 64 % 0 mm 461 W/m2
12:27 15.4 °C 8.6 °C 1020.5 hPa West 6.4 km/h 12.9 km/h 64 % 0 mm 724 W/m2
12:32 15.6 °C 8.8 °C 1020.5 hPa WSW 4.8 km/h 12.9 km/h 64 % 0 mm 700 W/m2
12:37 15.9 °C 8.8 °C 1020.5 hPa WSW 6.4 km/h 17.7 km/h 63 % 0 mm 636 W/m2
12:42 16.1 °C 8.6 °C 1020.9 hPa West 8 km/h 17.7 km/h 61 % 0 mm 603 W/m2
12:47 16.2 °C 8.7 °C 1020.5 hPa West 4.8 km/h 14.5 km/h 61 % 0 mm 578 W/m2
12:52 16.4 °C 8.8 °C 1020.5 hPa SW 3.2 km/h 11.3 km/h 61 % 0 mm 677 W/m2
12:57 16.4 °C 8.8 °C 1020.5 hPa SW 6.4 km/h 11.3 km/h 61 % 0 mm 127 W/m2
13:02 16.1 °C 8.8 °C 1020.5 hPa SW 6.4 km/h 11.3 km/h 62 % 0 mm 714 W/m2
13:07 16.2 °C 8.7 °C 1020.5 hPa WSW 6.4 km/h 11.3 km/h 61 % 0 mm 693 W/m2
13:12 16.4 °C 8.8 °C 1020.5 hPa WNW 6.4 km/h 12.9 km/h 61 % 0 mm 446 W/m2
13:18 16.4 °C 8.6 °C 1020.5 hPa NW 6.4 km/h 12.9 km/h 60 % 0 mm 134 W/m2
13:23 16.5 °C 8.7 °C 1020.5 hPa WNW 4.8 km/h 11.3 km/h 60 % 0 mm 705 W/m2
13:28 16.6 °C 8.8 °C 1020.5 hPa West 6.4 km/h 14.5 km/h 60 % 0 mm 163 W/m2
13:38 16.3 °C 8.8 °C 1020.5 hPa WNW 6.4 km/h 12.9 km/h 61 % 0 mm 176 W/m2
13:43 16.1 °C 8.6 °C 1020.5 hPa NW 6.4 km/h 12.9 km/h 61 % 0 mm 165 W/m2
13:48 16.2 °C 9.4 °C 1020.5 hPa NW 6.4 km/h 16.1 km/h 64 % 0 mm 780 W/m2
13:53 16.4 °C 9.1 °C 1020.5 hPa WNW 9.7 km/h 20.9 km/h 62 % 0 mm 700 W/m2
13:58 16.7 °C 8.9 °C 1020.5 hPa WNW 11.3 km/h 20.9 km/h 60 % 0 mm 659 W/m2
14:03 16.8 °C 9 °C 1020.5 hPa WNW 9.7 km/h 19.3 km/h 60 % 0 mm 621 W/m2
14:08 17 °C 8.7 °C 1020.5 hPa WNW 9.7 km/h 17.7 km/h 58 % 0 mm 601 W/m2
14:13 17.1 °C 8.5 °C 1020.5 hPa WNW 9.7 km/h 17.7 km/h 57 % 0 mm 645 W/m2
14:18 17.2 °C 8.8 °C 1020.5 hPa WNW 9.7 km/h 16.1 km/h 58 % 0 mm 622 W/m2
14:23 17.2 °C 8.6 °C 1020.5 hPa West 9.7 km/h 17.7 km/h 57 % 0 mm 608 W/m2
14:28 17.1 °C 9 °C 1020.5 hPa West 11.3 km/h 17.7 km/h 59 % 0 mm 629 W/m2
14:33 17 °C 9.2 °C 1020.5 hPa WNW 12.9 km/h 20.9 km/h 60 % 0 mm 167 W/m2
14:38 16.8 °C 9.2 °C 1020.5 hPa WNW 11.3 km/h 20.9 km/h 61 % 0 mm 195 W/m2
14:43 16.6 °C 9.1 °C 1020.5 hPa WNW 9.7 km/h 16.1 km/h 61 % 0 mm 218 W/m2
14:48 16.3 °C 8.5 °C 1020.5 hPa WNW 9.7 km/h 17.7 km/h 60 % 0 mm 292 W/m2
14:53 16.4 °C 8.8 °C 1020.5 hPa NW 11.3 km/h 20.9 km/h 61 % 0 mm 657 W/m2
14:58 16.6 °C 9.1 °C 1020.5 hPa NW 11.3 km/h 20.9 km/h 61 % 0 mm 183 W/m2
15:03 16.6 °C 9.3 °C 1020.5 hPa WNW 11.3 km/h 20.9 km/h 62 % 0 mm 146 W/m2
15:08 16.4 °C 8.8 °C 1020.5 hPa WNW 11.3 km/h 17.7 km/h 61 % 0 mm 128 W/m2
15:13 16.3 °C 9 °C 1020.2 hPa WNW 9.7 km/h 16.1 km/h 62 % 0 mm 176 W/m2
15:18 16.3 °C 9.2 °C 1020.2 hPa WNW 8 km/h 14.5 km/h 63 % 0 mm 592 W/m2
15:23 16.6 °C 9.3 °C 1020.2 hPa WNW 9.7 km/h 19.3 km/h 62 % 0 mm 554 W/m2
15:28 16.8 °C 9.2 °C 1020.2 hPa WNW 9.7 km/h 19.3 km/h 61 % 0 mm 90 W/m2
15:33 16.8 °C 9 °C 1020.2 hPa WNW 9.7 km/h 19.3 km/h 60 % 0 mm 543 W/m2
15:38 16.8 °C 9.2 °C 1020.2 hPa WNW 11.3 km/h 17.7 km/h 61 % 0 mm 566 W/m2
15:43 16.9 °C 8.6 °C 1020.2 hPa West 11.3 km/h 17.7 km/h 58 % 0 mm 123 W/m2
15:48 16.9 °C 8.8 °C 1019.9 hPa WNW 11.3 km/h 17.7 km/h 59 % 0 mm 510 W/m2
15:53 17.1 °C 9 °C 1019.9 hPa West 11.3 km/h 19.3 km/h 59 % 0 mm 468 W/m2
15:58 17.1 °C 8.8 °C 1019.9 hPa West 11.3 km/h 19.3 km/h 58 % 0 mm 443 W/m2
16:03 17.1 °C 8.8 °C 1019.9 hPa West 11.3 km/h 17.7 km/h 58 % 0 mm 432 W/m2
16:08 17.1 °C 8.5 °C 1019.9 hPa West 12.9 km/h 20.9 km/h 57 % 0 mm 417 W/m2
16:09 17.1 °C 8.5 °C 1019.9 hPa West 12.9 km/h 20.9 km/h 57 % 0 mm 415 W/m2
16:14 17.1 °C 8.8 °C 1019.9 hPa West 11.3 km/h 20.9 km/h 58 % 0 mm 403 W/m2
16:19 17.2 °C 8.6 °C 1019.9 hPa West 11.3 km/h 24.1 km/h 57 % 0 mm 387 W/m2
16:24 17.2 °C 8.6 °C 1019.9 hPa West 12.9 km/h 24.1 km/h 57 % 0 mm 366 W/m2
16:29 17 °C 8.4 °C 1019.5 hPa West 12.9 km/h 19.3 km/h 57 % 0 mm 355 W/m2
16:34 17.1 °C 9 °C 1019.9 hPa WSW 11.3 km/h 20.9 km/h 59 % 0 mm 336 W/m2
16:40 17.1 °C 8.8 °C 1019.5 hPa West 11.3 km/h 20.9 km/h 58 % 0 mm 316 W/m2
16:45 17.1 °C 9 °C 1019.5 hPa WNW 11.3 km/h 20.9 km/h 59 % 0 mm 306 W/m2
16:50 17.1 °C 9 °C 1019.5 hPa WNW 11.3 km/h 20.9 km/h 59 % 0 mm 295 W/m2
16:55 17.1 °C 9 °C 1019.5 hPa WNW 11.3 km/h 17.7 km/h 59 % 0 mm 301 W/m2
17:00 16.9 °C 9.1 °C 1019.5 hPa West 9.7 km/h 17.7 km/h 60 % 0 mm 318 W/m2
17:05 16.8 °C 9.2 °C 1019.5 hPa West 9.7 km/h 16.1 km/h 61 % 0 mm 272 W/m2
17:10 16.9 °C 9.3 °C 1019.5 hPa West 9.7 km/h 16.1 km/h 61 % 0 mm 271 W/m2
17:15 16.9 °C 9.1 °C 1019.5 hPa West 11.3 km/h 19.3 km/h 60 % 0 mm 250 W/m2
17:20 16.9 °C 9.1 °C 1019.2 hPa West 12.9 km/h 20.9 km/h 60 % 0 mm 218 W/m2
17:25 16.8 °C 9.2 °C 1019.2 hPa West 12.9 km/h 20.9 km/h 61 % 0 mm 213 W/m2
17:30 16.7 °C 9.1 °C 1019.2 hPa West 11.3 km/h 16.1 km/h 61 % 0 mm 211 W/m2
17:35 16.7 °C 9.6 °C 1019.2 hPa West 9.7 km/h 14.5 km/h 63 % 0 mm 195 W/m2
17:40 16.7 °C 9.4 °C 1019.2 hPa West 8 km/h 14.5 km/h 62 % 0 mm 178 W/m2
17:45 16.6 °C 9.3 °C 1019.2 hPa West 9.7 km/h 14.5 km/h 62 % 0 mm 167 W/m2
17:50 16.6 °C 9.5 °C 1019.2 hPa West 9.7 km/h 14.5 km/h 63 % 0 mm 151 W/m2
17:55 16.4 °C 9.1 °C 1019.5 hPa West 9.7 km/h 16.1 km/h 62 % 0 mm 134 W/m2
18:00 16.4 °C 9.3 °C 1019.5 hPa West 9.7 km/h 16.1 km/h 63 % 0 mm 121 W/m2
18:05 16.4 °C 9.3 °C 1019.5 hPa West 8 km/h 14.5 km/h 63 % 0 mm 107 W/m2
18:10 16.3 °C 9.5 °C 1019.5 hPa West 8 km/h 14.5 km/h 64 % 0 mm 93 W/m2
18:15 16.3 °C 9.5 °C 1019.5 hPa West 4.8 km/h 12.9 km/h 64 % 0 mm 77 W/m2
18:20 16.1 °C 9.5 °C 1019.5 hPa West 3.2 km/h 9.7 km/h 65 % 0 mm 63 W/m2
18:25 15.9 °C 9.6 °C 1019.2 hPa WSW 1.6 km/h 9.7 km/h 66 % 0 mm 46 W/m2
18:30 15.7 °C 9.6 °C 1019.2 hPa WSW 1.6 km/h 8 km/h 67 % 0 mm 26 W/m2
18:35 15.5 °C 9.4 °C 1019.5 hPa WSW 1.6 km/h 8 km/h 67 % 0 mm 26 W/m2
18:40 15.3 °C 9.4 °C 1019.2 hPa Calm   4.8 km/h 68 % 0 mm 18 W/m2
18:45 15.1 °C 9.7 °C 1019.5 hPa Calm   1.6 km/h 70 % 0 mm 14 W/m2
18:50 14.8 °C 9.6 °C 1019.5 hPa Calm   4.8 km/h 71 % 0 mm 11 W/m2
18:55 14.6 °C 9.6 °C 1019.5 hPa Calm   4.8 km/h 72 % 0 mm 9 W/m2
19:00 14.4 °C 9.6 °C 1019.5 hPa Calm     73 % 0 mm 7 W/m2
19:05 14.2 °C 9.4 °C 1019.5 hPa Calm     73 % 0 mm 5 W/m2
19:10 14.1 °C 9.6 °C 1019.5 hPa Calm     74 % 0 mm 0 W/m2
19:15 13.8 °C 9.2 °C 1019.5 hPa Calm     74 % 0 mm 0 W/m2
19:20 13.6 °C 9.2 °C 1019.5 hPa Calm   3.2 km/h 75 % 0 mm 0 W/m2
19:25 13.4 °C 9.3 °C 1019.5 hPa Calm   3.2 km/h 76 % 0 mm 0 W/m2
19:30 13.1 °C 9.2 °C 1019.5 hPa Calm   1.6 km/h 77 % 0 mm 0 W/m2
19:35 12.8 °C 9.1 °C 1019.5 hPa Calm   1.6 km/h 78 % 0 mm 0 W/m2
19:40 12.6 °C 9.1 °C 1019.5 hPa Calm     79 % 0 mm 0 W/m2
19:46 12.3 °C 8.9 °C 1019.5 hPa Calm     80 % 0 mm 0 W/m2
19:51 12.1 °C 8.8 °C 1019.5 hPa Calm   3.2 km/h 80 % 0 mm 0 W/m2
19:56 11.9 °C 8.7 °C 1019.5 hPa Calm   3.2 km/h 81 % 0 mm 0 W/m2
20:01 11.8 °C 8.8 °C 1019.5 hPa Calm     82 % 0 mm 0 W/m2
20:06 11.6 °C 8.8 °C 1019.5 hPa Calm   1.6 km/h 83 % 0 mm 0 W/m2
20:11 11.5 °C 8.7 °C 1019.5 hPa Calm   1.6 km/h 83 % 0 mm 0 W/m2
20:16 11.3 °C 8.7 °C 1019.9 hPa Calm   1.6 km/h 84 % 0 mm 0 W/m2
20:21 11.2 °C 8.6 °C 1019.5 hPa Calm   1.6 km/h 84 % 0 mm 0 W/m2
20:26 11 °C 8.6 °C 1019.5 hPa Calm     85 % 0 mm 0 W/m2
20:31 10.8 °C 8.4 °C 1019.5 hPa Calm     85 % 0 mm 0 W/m2
20:36 10.7 °C 8.3 °C 1019.5 hPa Calm     85 % 0 mm 0 W/m2
20:41 10.5 °C 8.3 °C 1019.5 hPa Calm     86 % 0 mm 0 W/m2
20:46 10.3 °C 8.1 °C 1019.5 hPa Calm     86 % 0 mm 0 W/m2
20:51 10.2 °C 7.9 °C 1019.5 hPa Calm     86 % 0 mm 0 W/m2
20:56 10 °C 7.8 °C 1019.5 hPa Calm     86 % 0 mm 0 W/m2
21:01 9.9 °C 7.8 °C 1019.5 hPa Calm     87 % 0 mm 0 W/m2
21:06 9.7 °C 7.7 °C 1019.5 hPa Calm     87 % 0 mm 0 W/m2
21:11 9.6 °C 7.6 °C 1019.5 hPa Calm     87 % 0 mm 0 W/m2
21:16 9.5 °C 7.6 °C 1019.5 hPa Calm     88 % 0 mm 0 W/m2
21:21 9.4 °C 7.5 °C 1019.5 hPa Calm     88 % 0 mm 0 W/m2
21:26 9.3 °C 7.6 °C 1019.5 hPa Calm     89 % 0 mm 0 W/m2
21:27 9.2 °C 7.5 °C 1019.5 hPa Calm     89 % 0 mm 0 W/m2
21:32 9.1 °C 7.4 °C 1019.5 hPa Calm     89 % 0 mm 0 W/m2
21:37 9.1 °C 7.6 °C 1019.5 hPa Calm     90 % 0 mm 0 W/m2
21:42 9.1 °C 7.6 °C 1019.5 hPa Calm     90 % 0 mm 0 W/m2
21:47 8.9 °C 7.3 °C 1019.5 hPa Calm     90 % 0 mm 0 W/m2
21:52 8.9 °C 7.3 °C 1019.5 hPa Calm   3.2 km/h 90 % 0 mm 0 W/m2
21:53 8.9 °C 7.3 °C 1019.5 hPa Calm   3.2 km/h 90 % 0 mm 0 W/m2
21:58 8.8 °C 7.2 °C 1019.5 hPa Calm   3.2 km/h 90 % 0 mm 0 W/m2
22:03 8.8 °C 7.4 °C 1019.5 hPa Calm   3.2 km/h 91 % 0 mm 0 W/m2
22:08 8.8 °C 7.4 °C 1019.5 hPa Calm   1.6 km/h 91 % 0 mm 0 W/m2
22:13 8.8 °C 7.4 °C 1019.5 hPa Calm   1.6 km/h 91 % 0 mm 0 W/m2
22:18 8.7 °C 7.3 °C 1019.5 hPa Calm     91 % 0 mm 0 W/m2
22:23 8.6 °C 7.2 °C 1019.5 hPa Calm   4.8 km/h 91 % 0 mm 0 W/m2
22:28 8.4 °C 7 °C 1019.5 hPa Calm   4.8 km/h 91 % 0 mm 0 W/m2
22:33 8.4 °C 7 °C 1019.2 hPa Calm   3.2 km/h 91 % 0 mm 0 W/m2
22:38 8.4 °C 7 °C 1019.2 hPa Calm   3.2 km/h 91 % 0 mm 0 W/m2
22:43 8.4 °C 7 °C 1019.2 hPa Calm   3.2 km/h 91 % 0 mm 0 W/m2
22:48 8.3 °C 7.1 °C 1019.2 hPa Calm   3.2 km/h 92 % 0 mm 0 W/m2
22:53 8.3 °C 7.1 °C 1019.2 hPa Calm   3.2 km/h 92 % 0 mm 0 W/m2
22:58 8.3 °C 7.1 °C 1019.2 hPa Calm   3.2 km/h 92 % 0 mm 0 W/m2
23:03 8.2 °C 7 °C 1019.2 hPa Calm   3.2 km/h 92 % 0 mm 0 W/m2
23:08 8.2 °C 7 °C 1019.2 hPa Calm   3.2 km/h 92 % 0 mm 0 W/m2
23:13 8.2 °C 7 °C 1019.2 hPa Calm   1.6 km/h 92 % 0 mm 0 W/m2
23:14 8.2 °C 7 °C 1019.2 hPa Calm     92 % 0 mm 0 W/m2
23:19 8.2 °C 7 °C 1019.2 hPa Calm     92 % 0 mm 0 W/m2
23:25 8.1 °C 6.9 °C 1019.2 hPa Calm     92 % 0 mm 0 W/m2
23:30 7.9 °C 6.7 °C 1019.2 hPa Calm   3.2 km/h 92 % 0 mm 0 W/m2
23:35 7.8 °C 6.6 °C 1018.8 hPa WSW 1.6 km/h 6.4 km/h 92 % 0 mm 0 W/m2
23:40 7.8 °C 6.6 °C 1018.8 hPa WSW 1.6 km/h 6.4 km/h 92 % 0 mm 0 W/m2
23:45 7.8 °C 6.6 °C 1018.8 hPa Calm   3.2 km/h 92 % 0 mm 0 W/m2
23:50 7.8 °C 6.6 °C 1018.8 hPa Calm     92 % 0 mm 0 W/m2
23:55 7.7 °C 6.5 °C 1018.8 hPa Calm     92 % 0 mm 0 W/m2
Delerius-Weather
Compliments of Weather Underground - 2.25 mb

Data updates at regular intervals.